Share

Clarington, OH (43915)

Kidwell, WV (KWVSISTE2) Elev 738 ft | 39.54 °N, 80.89 °W | Change Station

Current weather conditions updated 11 minutes ago

Clear
Clear
45.5 °F
Feels Like 46 °F
N
0.0
Wind Variable Wind from NNE
Sunrise 6:37 AM
Sunset 8:07 PM
Moon Waning Gibbous

Today is forecast to be nearly the same temperature as yesterday.

Pressure 30.15 in
Visibility 10.0 miles
Clouds Clear
Windchill 46 °F
Dew Point 40 °F
Humidity 80%
Rainfall 0.00 in
Snow Depth Not available.
UV 0 out of 16
Pollen 10.70 out of 12
Air Quality Not available.
Flu Activity Local Activity
METAR KHLG 210353Z AUTO 11008KT 10SM CLR 13/M03 A3015 RMK AO2 SLP210 T01331028

More Conditions Fewer Conditions

Pressure 30.15 in
Visibility 10.0 miles
Clouds Clear
Windchill 46 °F
Dew Point 40 °F
Humidity 80%
Rainfall 0.00 in
Snow Depth Not available.
UV 0 out of 16
Pollen 10.70 out of 12
Air Quality Not available.
Flu Activity Local Activity
METAR KHLG 210353Z AUTO 11008KT 10SM CLR 13/M03 A3015 RMK AO2 SLP210 T01331028

More Conditions Fewer Conditions

10-Day Weather Forecast

Almanac

Astronomy

Apr. 21, 2014 Rise Set
Actual Time 6:37 AM EDT 8:07 PM EDT
Civil Twilight 6:09 AM EDT 8:36 PM EDT
Nautical Twilight 5:34 AM EDT 9:10 PM EDT
Astronomical Twilight 4:58 AM EDT 9:46 PM EDT
Moon 1:36 AM EDT 12:02 PM EDT
Length of Visible Light 14h 27m
Length of Day
13h 30m
Tomorrow will be 2m 25s longer.
Waning Gibbous, 63% of the Moon is Illuminated
Today
Waning Gibbous
Apr 22
Last Quarter
Apr 29
New
May 6
First Quarter
May 14
Full

Today's Extremes

State Highs State Lows

Community

  • Snowy Robin
    Snowy Robin
  • Sun Pillar and Geese
    Sun Pillar and Geese
  • Showers on the Way
    Showers on the Way
  • Easter Morning Fog
    Easter Morning Fog
  • Easter Dance
    Easter Dance

WunderPhotos

Upload Photos

1,703,559 photos uploaded!

WunderBlogs® & News

Nearby

Snow Depth

Station Depth Elevation
No new snow has been reported.

Coastal Water Temperatures

Place Temperature
No Stations Reporting

Earthquake Activity

City Distance Mag. Time & Date
No recent earthquake activity has been reported nearby.
Minimum magnitude displayed is 2.5.

Nearby Weather Stations

Station Location Temp. Windchill Dew Point Humidity Wind Precip. Elev Updated Type
Kidwell, WV, Sistersville, WV 45.5 °F 46 °F 40 °F 80% NNE  at  0.0 mph - / hr 738 ft 12:43 AM EDT Normal
Raven Rock, St. Marys, WV 46.9 °F 47 °F 33 °F 58% WSW  at  0.0 mph 0.00 in / hr 627 ft 12:54 AM EDT Rapid Fire
Crawford Heights, Martins Ferry, OH 53.8 °F - 31 °F 42% SE  at  1.7 mph - / hr 1109 ft 12:45 AM EDT Normal

Show More Stations Show Fewer Stations

What do you think?

We're not finished. Please let us know what you like, what you don't like, and what you are still missing.